createdAt,value
2023-02-15T00:00:37.496Z,1.75
2023-02-15T00:03:04.733Z,1.89
2023-02-15T00:05:32.919Z,1.70
2023-02-15T00:08:00.342Z,1.84
2023-02-15T00:10:27.715Z,1.96
2023-02-15T00:12:54.916Z,2.08
2023-02-15T00:15:22.128Z,1.96
2023-02-15T00:17:49.410Z,1.80
2023-02-15T00:20:16.877Z,1.73
2023-02-15T00:22:44.161Z,1.68
2023-02-15T00:25:11.629Z,1.86
2023-02-15T00:27:39.008Z,1.88
2023-02-15T00:30:07.637Z,1.81
2023-02-15T00:32:35.203Z,1.85
2023-02-15T00:35:02.817Z,1.82
2023-02-15T00:37:30.448Z,1.85
2023-02-15T00:39:57.720Z,1.91
2023-02-15T00:42:25.417Z,1.85
2023-02-15T00:44:53.012Z,1.56
2023-02-15T00:47:21.794Z,1.87
2023-02-15T00:49:49.128Z,1.92
2023-02-15T00:52:16.612Z,1.67
2023-02-15T00:54:43.836Z,1.73
2023-02-15T00:57:11.386Z,1.72
2023-02-15T00:59:38.638Z,1.81
2023-02-15T01:02:05.838Z,1.80
2023-02-15T01:04:32.981Z,1.75
2023-02-15T01:07:00.257Z,1.73
2023-02-15T01:09:27.779Z,1.70
2023-02-15T01:11:55.126Z,1.61
2023-02-15T01:14:22.425Z,1.61
2023-02-15T01:16:49.758Z,1.80
2023-02-15T01:19:16.937Z,1.83
2023-02-15T01:21:44.281Z,1.47
2023-02-15T01:24:15.180Z,1.76
2023-02-15T01:26:42.479Z,1.91
2023-02-15T01:29:10.011Z,1.88
2023-02-15T01:31:39.878Z,1.24
2023-02-15T01:34:07.946Z,1.19
2023-02-15T01:36:36.249Z,1.47
2023-02-15T01:39:03.784Z,1.66
2023-02-15T01:41:37.712Z,1.29
2023-02-15T01:44:43.957Z,1.13
2023-02-15T01:47:42.341Z,0.82
2023-02-15T01:50:25.370Z,1.10
2023-02-15T01:53:16.986Z,1.23
2023-02-15T01:55:57.116Z,1.14
2023-02-15T01:58:30.044Z,1.31
2023-02-15T02:01:01.714Z,1.42
2023-02-15T02:04:03.076Z,1.57
2023-02-15T02:06:35.517Z,1.46
2023-02-15T02:09:04.067Z,1.58
2023-02-15T02:11:32.441Z,1.54
2023-02-15T02:14:01.041Z,1.29
2023-02-15T02:17:13.229Z,1.06
2023-02-15T02:20:14.067Z,1.01
2023-02-15T02:23:11.408Z,1.27
2023-02-15T02:26:09.621Z,1.56
2023-02-15T02:29:15.473Z,1.39
2023-02-15T02:32:45.099Z,1.29
2023-02-15T02:35:24.505Z,1.45
2023-02-15T02:38:29.746Z,1.50
2023-02-15T02:42:08.512Z,1.33
2023-02-15T02:44:58.008Z,1.29
2023-02-15T02:47:37.484Z,1.27
2023-02-15T02:50:17.571Z,1.34
2023-02-15T02:52:56.789Z,1.49
2023-02-15T02:56:04.578Z,1.72
2023-02-15T02:58:40.996Z,1.33
2023-02-15T03:01:34.334Z,1.10
2023-02-15T03:04:24.700Z,0.50
2023-02-15T03:07:04.378Z,0.98
2023-02-15T03:09:44.066Z,0.91
2023-02-15T03:12:25.582Z,0.84
2023-02-15T03:15:10.264Z,1.04
2023-02-15T03:17:46.584Z,0.96
2023-02-15T03:20:26.485Z,0.98
2023-02-15T03:23:06.837Z,1.00
2023-02-15T03:25:43.009Z,1.22
2023-02-15T03:28:22.286Z,1.10
2023-02-15T03:30:57.249Z,0.95
2023-02-15T03:33:29.178Z,0.85
2023-02-15T03:36:14.060Z,0.75
2023-02-15T03:39:00.286Z,0.85
2023-02-15T03:41:36.798Z,0.90
2023-02-15T03:44:33.501Z,1.11
2023-02-15T03:47:39.441Z,1.08
2023-02-15T03:50:44.128Z,0.75
2023-02-15T03:53:21.043Z,0.62
2023-02-15T03:55:56.805Z,0.63
2023-02-15T03:58:42.808Z,0.39
2023-02-15T04:01:57.732Z,0.18
2023-02-15T04:04:48.182Z,0.04
2023-02-15T04:07:15.838Z,-0.20
2023-02-15T04:10:02.234Z,-0.23
2023-02-15T04:12:30.329Z,-0.09
2023-02-15T04:15:16.410Z,-0.31
2023-02-15T04:17:43.612Z,-0.06
2023-02-15T04:20:29.846Z,0.11
2023-02-15T04:23:15.888Z,0.38
2023-02-15T04:25:43.131Z,0.55
2023-02-15T04:28:10.350Z,0.72
2023-02-15T04:30:37.606Z,0.35
2023-02-15T04:33:04.923Z,0.52
2023-02-15T04:35:32.812Z,0.72
2023-02-15T04:38:00.801Z,0.74
2023-02-15T04:40:28.264Z,0.60
2023-02-15T04:42:56.056Z,-0.03
2023-02-15T04:45:23.705Z,0.12
2023-02-15T04:47:51.029Z,0.08
2023-02-15T04:50:18.484Z,0.43
2023-02-15T04:52:51.967Z,0.53
2023-02-15T04:55:19.372Z,0.52
2023-02-15T04:57:48.218Z,0.66
2023-02-15T05:00:16.203Z,0.25
2023-02-15T05:02:43.473Z,0.52
2023-02-15T05:05:14.120Z,0.38
2023-02-15T05:07:41.560Z,0.38
2023-02-15T05:10:10.125Z,0.23
2023-02-15T05:12:37.530Z,0.47
2023-02-15T05:15:05.446Z,0.97
2023-02-15T05:17:33.122Z,1.30
2023-02-15T05:20:00.328Z,1.30
2023-02-15T05:22:27.910Z,0.96
2023-02-15T05:25:13.984Z,0.73
2023-02-15T05:28:00.114Z,0.61
2023-02-15T05:30:28.162Z,0.43
2023-02-15T05:32:55.492Z,0.85
2023-02-15T05:35:23.047Z,0.54
2023-02-15T05:37:50.514Z,0.41
2023-02-15T05:40:20.219Z,0.52
2023-02-15T05:42:47.451Z,0.71
2023-02-15T05:45:14.780Z,0.54
2023-02-15T05:47:42.392Z,0.26
2023-02-15T05:50:11.074Z,0.09
2023-02-15T05:52:38.658Z,-0.42
2023-02-15T05:55:09.633Z,-0.86
2023-02-15T05:57:37.478Z,-0.42
2023-02-15T06:00:07.071Z,-0.02
2023-02-15T06:02:43.384Z,0.11
2023-02-15T06:05:10.860Z,0.24
2023-02-15T06:07:48.949Z,0.55
2023-02-15T06:10:16.646Z,0.61
2023-02-15T06:12:46.169Z,0.48
2023-02-15T06:15:14.975Z,0.53
2023-02-15T06:17:44.059Z,0.63
2023-02-15T06:20:12.770Z,0.35
2023-02-15T06:22:40.619Z,0.33
2023-02-15T06:25:10.968Z,0.21
2023-02-15T06:27:42.101Z,0.09
2023-02-15T06:30:11.681Z,0.16
2023-02-15T06:32:41.182Z,0.59
2023-02-15T06:35:14.700Z,0.45
2023-02-15T06:37:43.936Z,0.23
2023-02-15T06:40:11.614Z,0.73
2023-02-15T06:42:38.829Z,0.61
2023-02-15T06:45:08.484Z,0.54
2023-02-15T06:47:36.169Z,0.91
2023-02-15T06:50:08.247Z,0.90
2023-02-15T06:52:36.130Z,0.65
2023-02-15T06:55:04.415Z,0.98
2023-02-15T06:57:31.905Z,1.01
2023-02-15T06:59:59.515Z,1.18
2023-02-15T07:02:29.347Z,1.03
2023-02-15T07:04:56.815Z,0.83
2023-02-15T07:07:24.449Z,1.10
2023-02-15T07:09:52.480Z,1.11
2023-02-15T07:12:38.646Z,1.04
2023-02-15T07:15:07.922Z,0.88
2023-02-15T07:17:36.475Z,1.11
2023-02-15T07:20:19.709Z,1.32
2023-02-15T07:22:48.123Z,1.49
2023-02-15T07:25:16.396Z,1.87
2023-02-15T07:27:49.644Z,1.97
2023-02-15T07:30:19.315Z,1.61
2023-02-15T07:33:06.312Z,1.43
2023-02-15T07:35:37.122Z,1.40
2023-02-15T07:38:04.513Z,1.33
2023-02-15T07:40:31.949Z,1.61
2023-02-15T07:43:02.040Z,1.77
2023-02-15T07:45:29.324Z,1.97
2023-02-15T07:47:56.694Z,2.23
2023-02-15T07:50:26.644Z,2.15
2023-02-15T07:52:54.190Z,2.10
2023-02-15T07:55:21.784Z,1.97
2023-02-15T07:57:51.674Z,1.87
2023-02-15T08:00:25.641Z,2.13
2023-02-15T08:03:15.734Z,2.22
2023-02-15T08:05:47.502Z,2.19
2023-02-15T08:08:55.266Z,2.42
2023-02-15T08:11:50.078Z,1.83
2023-02-15T08:14:23.340Z,2.16
2023-02-15T08:17:03.726Z,2.09
2023-02-15T08:19:34.077Z,2.50
2023-02-15T08:22:11.174Z,2.51
2023-02-15T08:24:40.011Z,2.73
2023-02-15T08:27:13.757Z,2.97
2023-02-15T08:29:50.633Z,3.18
2023-02-15T08:32:19.022Z,3.41
2023-02-15T08:34:47.805Z,3.63
2023-02-15T08:37:15.061Z,3.20
2023-02-15T08:39:44.268Z,3.45
2023-02-15T08:42:11.515Z,3.85
2023-02-15T08:44:38.984Z,4.81
2023-02-15T08:47:13.415Z,7.78
2023-02-15T08:49:45.412Z,10.79
2023-02-15T08:52:13.569Z,14.07
2023-02-15T08:54:43.784Z,16.59
2023-02-15T08:57:18.464Z,18.12
2023-02-15T08:59:56.400Z,19.33
2023-02-15T09:02:29.338Z,20.43
2023-02-15T09:05:09.429Z,22.55
2023-02-15T09:07:52.661Z,23.16
2023-02-15T09:10:41.062Z,24.08
2023-02-15T09:13:54.170Z,25.48
2023-02-15T09:16:30.303Z,25.29
2023-02-15T09:19:07.883Z,24.82
2023-02-15T09:21:39.514Z,25.91
2023-02-15T09:24:11.387Z,25.22
2023-02-15T09:26:43.480Z,26.46
2023-02-15T09:29:13.552Z,26.81
2023-02-15T09:31:51.748Z,26.62
2023-02-15T09:34:23.289Z,25.19
2023-02-15T09:36:52.116Z,24.53
2023-02-15T09:39:27.066Z,25.94
2023-02-15T09:42:18.886Z,27.00
2023-02-15T09:45:23.248Z,27.23
2023-02-15T09:48:32.972Z,28.41
2023-02-15T09:52:01.873Z,27.97
2023-02-15T09:54:47.731Z,27.82
2023-02-15T09:57:58.166Z,29.67
2023-02-15T10:01:10.067Z,28.53
2023-02-15T10:04:24.689Z,27.72
2023-02-15T10:07:09.765Z,27.60
2023-02-15T10:10:03.788Z,26.73
2023-02-15T10:13:05.957Z,27.03
2023-02-15T10:15:42.446Z,26.78
2023-02-15T10:18:37.696Z,28.16
2023-02-15T10:21:25.206Z,28.07
2023-02-15T10:24:30.337Z,28.67
2023-02-15T10:27:14.933Z,26.87
2023-02-15T10:30:14.332Z,27.16
2023-02-15T10:33:12.273Z,26.97
2023-02-15T10:36:19.075Z,26.93
2023-02-15T10:39:16.824Z,27.17
2023-02-15T10:42:08.957Z,28.55
2023-02-15T10:45:40.927Z,28.83
2023-02-15T10:48:36.587Z,30.12
2023-02-15T10:51:12.302Z,29.76
2023-02-15T10:54:35.804Z,29.20
2023-02-15T10:57:53.496Z,29.49
2023-02-15T11:01:12.070Z,30.54
2023-02-15T11:04:13.074Z,30.98
2023-02-15T11:06:53.027Z,30.88
2023-02-15T11:09:27.125Z,30.18
2023-02-15T11:11:58.326Z,29.72
2023-02-15T11:14:51.401Z,29.37
2023-02-15T11:17:58.432Z,29.64
2023-02-15T11:20:33.349Z,30.10
2023-02-15T11:23:03.850Z,29.03
2023-02-15T11:25:35.809Z,30.18
2023-02-15T11:28:19.450Z,31.04
2023-02-15T11:30:56.163Z,31.41
2023-02-15T11:33:37.760Z,31.22
2023-02-15T11:36:27.902Z,30.59
2023-02-15T11:39:11.846Z,29.74
2023-02-15T11:41:52.282Z,30.28
2023-02-15T11:44:29.241Z,29.73
2023-02-15T11:46:57.300Z,30.15
2023-02-15T11:49:36.380Z,29.98
2023-02-15T11:52:12.234Z,30.38
2023-02-15T11:54:53.432Z,30.22
2023-02-15T11:57:39.962Z,29.26
2023-02-15T12:00:43.956Z,28.07
2023-02-15T12:03:45.541Z,29.31
2023-02-15T12:06:31.977Z,29.94
2023-02-15T12:09:33.262Z,30.02
2023-02-15T12:12:27.836Z,29.73
2023-02-15T12:15:02.715Z,29.06
2023-02-15T12:17:56.685Z,29.04
2023-02-15T12:20:33.773Z,28.79
2023-02-15T12:23:13.657Z,26.32
2023-02-15T12:25:55.267Z,26.92
2023-02-15T12:28:34.217Z,26.95
2023-02-15T12:31:20.072Z,25.84
2023-02-15T12:33:48.313Z,24.95
2023-02-15T12:36:45.464Z,24.41
2023-02-15T12:39:28.566Z,24.92
2023-02-15T12:41:58.599Z,25.65
2023-02-15T12:44:38.156Z,25.31
2023-02-15T12:47:19.398Z,24.99
2023-02-15T12:50:34.568Z,24.74
2023-02-15T12:53:19.911Z,24.12
2023-02-15T12:56:02.212Z,23.62
2023-02-15T12:58:34.098Z,23.37
2023-02-15T13:01:10.811Z,23.38
2023-02-15T13:04:06.909Z,24.58
2023-02-15T13:06:49.991Z,24.11
2023-02-15T13:09:37.010Z,24.81
2023-02-15T13:12:27.403Z,24.59
2023-02-15T13:14:57.169Z,23.42
2023-02-15T13:17:35.485Z,23.32
2023-02-15T13:20:25.484Z,22.02
2023-02-15T13:23:02.247Z,22.55
2023-02-15T13:25:48.284Z,22.59
2023-02-15T13:28:20.677Z,22.12
2023-02-15T13:30:49.298Z,21.08
2023-02-15T13:33:34.995Z,21.41
2023-02-15T13:37:07.685Z,21.34
2023-02-15T13:39:48.520Z,21.91
2023-02-15T13:42:38.339Z,22.20
2023-02-15T13:45:17.452Z,21.46
2023-02-15T13:48:16.991Z,21.98
2023-02-15T13:51:06.231Z,22.11
2023-02-15T13:53:51.746Z,21.83
2023-02-15T13:57:27.395Z,22.47
2023-02-15T14:00:41.629Z,21.77
2023-02-15T14:03:55.007Z,21.59
2023-02-15T14:06:58.875Z,20.88
2023-02-15T14:09:53.950Z,19.18
2023-02-15T14:13:36.079Z,17.98
2023-02-15T14:17:07.053Z,17.10
2023-02-15T14:19:53.909Z,16.73
2023-02-15T14:22:43.714Z,16.48
2023-02-15T14:25:44.985Z,16.17
2023-02-15T14:28:43.920Z,16.10
2023-02-15T14:31:37.233Z,15.74
2023-02-15T14:34:05.188Z,16.05
2023-02-15T14:36:34.172Z,15.90
2023-02-15T14:40:01.391Z,15.97
2023-02-15T14:42:50.236Z,15.77
2023-02-15T14:45:47.719Z,15.85
2023-02-15T14:49:04.621Z,15.90
2023-02-15T14:51:44.121Z,15.63
2023-02-15T14:54:18.369Z,15.31
2023-02-15T14:57:07.703Z,15.44
2023-02-15T15:00:02.383Z,15.10
2023-02-15T15:02:51.566Z,15.00
2023-02-15T15:05:32.994Z,15.16
2023-02-15T15:08:04.725Z,15.37
2023-02-15T15:10:46.553Z,15.40
2023-02-15T15:14:00.620Z,15.43
2023-02-15T15:16:36.246Z,15.27
2023-02-15T15:19:11.647Z,15.40
2023-02-15T15:21:51.380Z,15.28
2023-02-15T15:24:37.523Z,15.01
2023-02-15T15:27:49.679Z,14.81
2023-02-15T15:30:20.608Z,15.03
2023-02-15T15:32:57.976Z,14.58
2023-02-15T15:36:36.125Z,14.59
2023-02-15T15:39:58.420Z,14.33
2023-02-15T15:43:21.060Z,14.55
2023-02-15T15:46:13.728Z,15.07
2023-02-15T15:48:43.073Z,15.14
2023-02-15T15:51:29.816Z,15.41
2023-02-15T15:54:05.151Z,14.98
2023-02-15T15:56:39.084Z,14.61
2023-02-15T15:59:20.145Z,14.24
2023-02-15T16:01:54.101Z,14.02
2023-02-15T16:04:31.135Z,13.82
2023-02-15T16:07:42.329Z,13.51
2023-02-15T16:10:31.076Z,13.48
2023-02-15T16:13:00.699Z,13.31
2023-02-15T16:15:45.826Z,13.22
2023-02-15T16:18:26.166Z,12.85
2023-02-15T16:21:03.642Z,12.87
2023-02-15T16:23:37.316Z,12.65
2023-02-15T16:27:26.250Z,12.64
2023-02-15T16:29:54.101Z,12.51
2023-02-15T16:32:29.477Z,12.26
2023-02-15T16:34:59.957Z,12.24
2023-02-15T16:37:36.598Z,12.03
2023-02-15T16:40:08.157Z,11.88
2023-02-15T16:42:36.956Z,11.62
2023-02-15T16:45:18.648Z,11.73
2023-02-15T16:47:53.271Z,11.59
2023-02-15T16:50:32.946Z,11.68
2023-02-15T16:53:03.263Z,11.50
2023-02-15T16:55:43.647Z,11.39
2023-02-15T16:58:23.452Z,11.22
2023-02-15T17:00:51.379Z,11.04
2023-02-15T17:03:19.599Z,10.96
2023-02-15T17:05:58.599Z,10.72
2023-02-15T17:08:45.220Z,10.78
2023-02-15T17:11:23.531Z,10.69
2023-02-15T17:14:07.822Z,10.49
2023-02-15T17:16:50.526Z,10.38
2023-02-15T17:19:31.777Z,10.16
2023-02-15T17:22:07.848Z,10.12
2023-02-15T17:24:46.075Z,9.85
2023-02-15T17:27:27.662Z,9.56
2023-02-15T17:30:04.891Z,9.11
2023-02-15T17:32:37.486Z,9.03
2023-02-15T17:35:26.884Z,8.97
2023-02-15T17:38:24.131Z,8.99
2023-02-15T17:40:55.619Z,8.96
2023-02-15T17:43:22.900Z,8.88
2023-02-15T17:45:54.328Z,8.66
2023-02-15T17:48:38.640Z,8.48
2023-02-15T17:51:16.283Z,8.29
2023-02-15T17:54:05.697Z,8.53
2023-02-15T17:56:39.201Z,8.09
2023-02-15T17:59:12.392Z,7.92
2023-02-15T18:02:08.226Z,7.57
2023-02-15T18:04:56.426Z,7.62
2023-02-15T18:07:42.708Z,7.64
2023-02-15T18:10:36.266Z,7.76
2023-02-15T18:13:07.532Z,7.72
2023-02-15T18:15:35.627Z,7.57
2023-02-15T18:18:03.430Z,7.32
2023-02-15T18:20:39.871Z,7.48
2023-02-15T18:23:14.879Z,7.41
2023-02-15T18:25:43.880Z,7.17
2023-02-15T18:28:11.121Z,7.00
2023-02-15T18:30:45.123Z,7.08
2023-02-15T18:33:39.505Z,7.12
2023-02-15T18:36:26.281Z,6.87
2023-02-15T18:38:55.882Z,6.82
2023-02-15T18:41:27.253Z,6.94
2023-02-15T18:43:57.586Z,6.63
2023-02-15T18:46:27.528Z,6.45
2023-02-15T18:48:56.110Z,6.30
2023-02-15T18:51:24.644Z,6.22
2023-02-15T18:53:54.415Z,6.33
2023-02-15T18:56:26.600Z,6.60
2023-02-15T18:58:54.182Z,6.80
2023-02-15T19:01:22.134Z,6.73
2023-02-15T19:03:54.747Z,6.62
2023-02-15T19:06:24.971Z,6.65
2023-02-15T19:08:55.701Z,6.68
2023-02-15T19:11:28.617Z,6.73
2023-02-15T19:13:56.854Z,6.58
2023-02-15T19:16:33.394Z,6.69
2023-02-15T19:19:05.730Z,6.33
2023-02-15T19:21:34.356Z,6.26
2023-02-15T19:24:10.161Z,6.35
2023-02-15T19:26:45.654Z,6.41
2023-02-15T19:29:26.802Z,6.03
2023-02-15T19:31:54.599Z,5.88
2023-02-15T19:34:24.915Z,6.45
2023-02-15T19:36:56.786Z,6.69
2023-02-15T19:39:36.714Z,6.28
2023-02-15T19:42:15.445Z,5.93
2023-02-15T19:44:43.838Z,5.61
2023-02-15T19:47:40.650Z,5.71
2023-02-15T19:50:29.932Z,5.94
2023-02-15T19:52:59.573Z,5.86
2023-02-15T19:55:35.463Z,6.52
2023-02-15T19:58:03.853Z,6.49
2023-02-15T20:00:36.244Z,6.21
2023-02-15T20:03:07.397Z,6.24
2023-02-15T20:05:38.639Z,5.94
2023-02-15T20:08:14.650Z,5.68
2023-02-15T20:10:42.530Z,5.74
2023-02-15T20:13:20.996Z,5.70
2023-02-15T20:15:51.856Z,5.72
2023-02-15T20:18:25.487Z,5.59
2023-02-15T20:20:55.285Z,5.43
2023-02-15T20:23:36.273Z,5.40
2023-02-15T20:26:18.474Z,5.55
2023-02-15T20:28:52.031Z,5.07
2023-02-15T20:31:23.778Z,5.17
2023-02-15T20:33:54.135Z,4.84
2023-02-15T20:36:23.361Z,4.47
2023-02-15T20:39:04.221Z,4.38
2023-02-15T20:42:11.606Z,4.51
2023-02-15T20:44:43.947Z,4.33
2023-02-15T20:47:11.885Z,4.33
2023-02-15T20:49:45.253Z,4.18
2023-02-15T20:52:21.105Z,4.19
2023-02-15T20:54:48.908Z,4.52
2023-02-15T20:57:19.306Z,4.72
2023-02-15T20:59:47.082Z,4.79
2023-02-15T21:02:28.954Z,4.72
2023-02-15T21:04:57.196Z,4.90
2023-02-15T21:07:30.047Z,4.92
2023-02-15T21:09:57.512Z,4.82
2023-02-15T21:12:25.349Z,4.59
2023-02-15T21:14:56.192Z,4.49
2023-02-15T21:17:23.897Z,4.55
2023-02-15T21:19:51.654Z,4.13
2023-02-15T21:22:21.675Z,4.15
2023-02-15T21:24:53.819Z,4.58
2023-02-15T21:27:24.230Z,4.68
2023-02-15T21:29:51.694Z,4.55
2023-02-15T21:32:19.270Z,4.09
2023-02-15T21:34:46.796Z,4.26
2023-02-15T21:37:36.528Z,4.41
2023-02-15T21:40:07.063Z,4.12
2023-02-15T21:42:53.129Z,4.25
2023-02-15T21:45:39.343Z,4.29
2023-02-15T21:48:09.200Z,4.33
2023-02-15T21:50:57.108Z,4.40
2023-02-15T21:53:39.889Z,4.86
2023-02-15T21:56:13.994Z,4.63
2023-02-15T21:58:41.663Z,4.58
2023-02-15T22:01:27.187Z,4.27
2023-02-15T22:03:58.071Z,4.29
2023-02-15T22:06:25.732Z,4.68
2023-02-15T22:08:57.299Z,4.67
2023-02-15T22:11:24.843Z,4.90
2023-02-15T22:13:55.816Z,4.51
2023-02-15T22:16:23.675Z,4.34
2023-02-15T22:18:50.990Z,4.21
2023-02-15T22:21:19.178Z,4.42
2023-02-15T22:23:49.450Z,4.69
2023-02-15T22:26:25.607Z,4.57
2023-02-15T22:28:53.388Z,4.25
2023-02-15T22:31:23.348Z,4.74
2023-02-15T22:33:51.362Z,4.37
2023-02-15T22:36:31.060Z,3.86
2023-02-15T22:38:58.807Z,3.46
2023-02-15T22:41:31.305Z,3.59
2023-02-15T22:44:03.500Z,3.65
2023-02-15T22:46:30.982Z,3.19
2023-02-15T22:48:58.603Z,3.23
2023-02-15T22:51:26.494Z,3.44
2023-02-15T22:53:53.840Z,3.24
2023-02-15T22:56:39.646Z,3.16
2023-02-15T22:59:21.960Z,3.48
2023-02-15T23:01:49.772Z,3.51
2023-02-15T23:04:22.787Z,3.82
2023-02-15T23:06:51.583Z,3.56
2023-02-15T23:09:19.791Z,3.63
2023-02-15T23:11:49.504Z,3.34
2023-02-15T23:14:29.170Z,3.48
2023-02-15T23:16:56.441Z,3.43
2023-02-15T23:19:23.800Z,3.20
2023-02-15T23:21:51.557Z,3.38
2023-02-15T23:24:29.877Z,3.22
2023-02-15T23:27:17.908Z,3.47
2023-02-15T23:29:45.376Z,3.48
2023-02-15T23:32:14.884Z,3.46
2023-02-15T23:34:43.352Z,3.66
2023-02-15T23:37:14.347Z,3.53
2023-02-15T23:40:03.330Z,3.62
2023-02-15T23:42:35.199Z,3.44
2023-02-15T23:45:03.357Z,3.31
2023-02-15T23:47:53.978Z,3.24
2023-02-15T23:50:30.244Z,3.19
2023-02-15T23:52:58.962Z,3.16
2023-02-15T23:55:36.331Z,3.12
2023-02-15T23:58:10.195Z,3.19
